createdAt,value
2022-07-29T00:00:00.347Z,17.13
2022-07-29T00:02:27.365Z,17.11
2022-07-29T00:04:54.188Z,17.11
2022-07-29T00:07:21.289Z,17.09
2022-07-29T00:09:51.199Z,17.07
2022-07-29T00:12:25.576Z,17.03
2022-07-29T00:14:54.260Z,17.05
2022-07-29T00:17:22.555Z,17.06
2022-07-29T00:19:49.439Z,17.03
2022-07-29T00:22:16.025Z,17.09
2022-07-29T00:24:42.677Z,17.13
2022-07-29T00:27:09.250Z,17.12
2022-07-29T00:29:36.116Z,16.99
2022-07-29T00:32:03.076Z,17.12
2022-07-29T00:34:31.453Z,17.03
2022-07-29T00:36:58.817Z,16.99
2022-07-29T00:39:25.495Z,17.04
2022-07-29T00:41:54.171Z,16.98
2022-07-29T00:44:20.745Z,16.94
2022-07-29T00:46:47.370Z,16.93
2022-07-29T00:49:14.234Z,16.97
2022-07-29T00:51:42.343Z,16.89
2022-07-29T00:54:09.171Z,16.99
2022-07-29T00:56:35.818Z,16.97
2022-07-29T00:59:02.480Z,16.97
2022-07-29T01:01:29.168Z,16.96
2022-07-29T01:03:55.957Z,16.96
2022-07-29T01:06:23.440Z,17.01
2022-07-29T01:08:52.340Z,17.01
2022-07-29T01:11:19.913Z,17.02
2022-07-29T01:13:48.339Z,17.02
2022-07-29T01:16:21.958Z,16.97
2022-07-29T01:18:52.130Z,16.93
2022-07-29T01:21:45.167Z,16.91
2022-07-29T01:24:34.961Z,16.87
2022-07-29T01:27:15.722Z,16.86
2022-07-29T01:29:50.098Z,16.83
2022-07-29T01:32:28.177Z,16.83
2022-07-29T01:35:01.595Z,16.83
2022-07-29T01:37:33.926Z,16.74
2022-07-29T01:40:04.432Z,16.80
2022-07-29T01:42:36.382Z,16.81
2022-07-29T01:45:13.369Z,16.76
2022-07-29T01:47:43.224Z,16.73
2022-07-29T01:50:13.590Z,16.70
2022-07-29T01:52:45.657Z,16.66
2022-07-29T01:55:16.427Z,16.61
2022-07-29T01:57:47.580Z,16.51
2022-07-29T02:00:16.915Z,16.49
2022-07-29T02:02:46.335Z,16.44
2022-07-29T02:05:16.544Z,16.19
2022-07-29T02:07:45.348Z,16.28
2022-07-29T02:10:13.530Z,16.23
2022-07-29T02:12:41.820Z,16.31
2022-07-29T02:15:11.451Z,16.35
2022-07-29T02:17:44.634Z,16.31
2022-07-29T02:20:12.480Z,16.42
2022-07-29T02:22:41.120Z,16.46
2022-07-29T02:25:13.841Z,16.39
2022-07-29T02:27:43.469Z,16.35
2022-07-29T02:30:10.696Z,16.22
2022-07-29T02:32:40.944Z,16.24
2022-07-29T02:35:09.974Z,16.07
2022-07-29T02:37:37.982Z,16.16
2022-07-29T02:40:08.861Z,16.14
2022-07-29T02:42:38.259Z,16.13
2022-07-29T02:45:06.036Z,16.06
2022-07-29T02:47:41.326Z,15.99
2022-07-29T02:50:15.851Z,15.92
2022-07-29T02:52:45.119Z,15.84
2022-07-29T02:55:19.855Z,15.82
2022-07-29T02:57:53.926Z,15.80
2022-07-29T03:00:24.492Z,15.79
2022-07-29T03:02:55.071Z,15.77
2022-07-29T03:05:23.465Z,15.78
2022-07-29T03:08:02.414Z,15.77
2022-07-29T03:10:29.702Z,15.75
2022-07-29T03:12:57.340Z,15.74
2022-07-29T03:15:26.796Z,15.70
2022-07-29T03:17:54.302Z,15.67
2022-07-29T03:20:22.839Z,15.66
2022-07-29T03:22:49.816Z,15.70
2022-07-29T03:25:17.725Z,15.70
2022-07-29T03:27:45.145Z,15.63
2022-07-29T03:30:18.199Z,15.57
2022-07-29T03:32:48.812Z,15.54
2022-07-29T03:35:15.490Z,15.48
2022-07-29T03:37:43.563Z,15.45
2022-07-29T03:40:15.235Z,15.37
2022-07-29T03:42:44.908Z,15.34
2022-07-29T03:45:14.746Z,15.31
2022-07-29T03:47:50.968Z,15.30
2022-07-29T03:50:20.849Z,15.28
2022-07-29T03:52:49.519Z,15.27
2022-07-29T03:55:17.171Z,15.31
2022-07-29T03:57:46.332Z,15.31
2022-07-29T04:00:14.325Z,15.31
2022-07-29T04:02:41.099Z,15.31
2022-07-29T04:05:13.392Z,15.29
2022-07-29T04:07:40.200Z,15.29
2022-07-29T04:10:08.751Z,15.30
2022-07-29T04:12:35.500Z,15.29
2022-07-29T04:15:02.353Z,15.31
2022-07-29T04:17:28.995Z,15.29
2022-07-29T04:19:55.530Z,15.29
2022-07-29T04:22:22.202Z,15.30
2022-07-29T04:24:49.579Z,15.23
2022-07-29T04:27:17.587Z,15.29
2022-07-29T04:29:56.366Z,15.31
2022-07-29T04:32:23.880Z,15.26
2022-07-29T04:34:50.479Z,15.54
2022-07-29T04:37:17.102Z,15.63
2022-07-29T04:39:43.691Z,15.88
2022-07-29T04:42:10.425Z,16.10
2022-07-29T04:44:39.538Z,16.21
2022-07-29T04:47:15.622Z,16.24
2022-07-29T04:49:42.283Z,16.25
2022-07-29T04:52:08.867Z,16.28
2022-07-29T04:54:35.545Z,16.32
2022-07-29T04:57:02.240Z,16.44
2022-07-29T04:59:29.001Z,16.51
2022-07-29T05:01:55.713Z,16.53
2022-07-29T05:04:23.826Z,16.50
2022-07-29T05:06:50.394Z,16.52
2022-07-29T05:09:17.150Z,16.53
2022-07-29T05:11:43.706Z,16.56
2022-07-29T05:14:10.356Z,16.61
2022-07-29T05:16:36.983Z,16.66
2022-07-29T05:19:03.886Z,16.73
2022-07-29T05:21:31.802Z,16.82
2022-07-29T05:23:58.528Z,16.92
2022-07-29T05:26:25.097Z,16.94
2022-07-29T05:28:51.756Z,17.13
2022-07-29T05:31:18.609Z,17.19
2022-07-29T05:33:45.330Z,17.28
2022-07-29T05:36:11.964Z,17.37
2022-07-29T05:38:39.970Z,17.49
2022-07-29T05:41:06.844Z,17.60
2022-07-29T05:43:33.821Z,17.56
2022-07-29T05:46:00.641Z,17.75
2022-07-29T05:48:27.946Z,17.86
2022-07-29T05:50:54.763Z,17.95
2022-07-29T05:53:21.587Z,18.02
2022-07-29T05:55:50.484Z,18.26
2022-07-29T05:58:17.682Z,18.41
2022-07-29T06:00:44.351Z,18.51
2022-07-29T06:03:10.985Z,18.53
2022-07-29T06:05:40.347Z,18.78
2022-07-29T06:08:06.994Z,18.86
2022-07-29T06:10:34.997Z,18.97
2022-07-29T06:13:03.028Z,19.11
2022-07-29T06:15:29.626Z,19.22
2022-07-29T06:18:00.206Z,19.33
2022-07-29T06:20:27.577Z,19.36
2022-07-29T06:22:54.164Z,19.42
2022-07-29T06:25:21.285Z,19.47
2022-07-29T06:27:48.090Z,19.61
2022-07-29T06:30:16.095Z,19.72
2022-07-29T06:32:43.308Z,19.85
2022-07-29T06:35:39.116Z,19.89
2022-07-29T06:37:59.457Z,20.05
2022-07-29T06:40:26.575Z,20.10
2022-07-29T06:42:53.150Z,20.26
2022-07-29T06:45:21.318Z,20.35
2022-07-29T06:47:47.857Z,20.57
2022-07-29T06:50:14.425Z,20.68
2022-07-29T06:52:41.203Z,20.89
2022-07-29T06:55:08.901Z,20.98
2022-07-29T06:57:35.579Z,21.12
2022-07-29T07:00:02.459Z,21.20
2022-07-29T07:02:30.469Z,21.27
2022-07-29T07:04:57.089Z,21.24
2022-07-29T07:07:23.681Z,21.43
2022-07-29T07:09:50.292Z,21.40
2022-07-29T07:12:16.955Z,21.39
2022-07-29T07:14:43.611Z,21.61
2022-07-29T07:17:10.187Z,21.72
2022-07-29T07:19:38.110Z,21.90
2022-07-29T07:22:04.737Z,22.04
2022-07-29T07:24:31.467Z,22.04
2022-07-29T07:26:58.048Z,22.18
2022-07-29T07:29:24.696Z,22.01
2022-07-29T07:31:51.382Z,22.10
2022-07-29T07:34:18.427Z,22.27
2022-07-29T07:36:57.776Z,22.43
2022-07-29T07:39:24.423Z,22.53
2022-07-29T07:41:51.084Z,22.62
2022-07-29T07:44:17.987Z,22.77
2022-07-29T07:46:44.808Z,22.86
2022-07-29T07:49:11.819Z,23.09
2022-07-29T07:51:38.585Z,23.28
2022-07-29T07:54:06.667Z,23.54
2022-07-29T07:56:35.410Z,23.71
2022-07-29T07:59:02.146Z,23.85
2022-07-29T08:01:28.871Z,23.96
2022-07-29T08:03:55.505Z,23.90
2022-07-29T08:06:22.189Z,24.01
2022-07-29T08:08:48.756Z,24.05
2022-07-29T08:11:17.059Z,24.11
2022-07-29T08:13:43.681Z,24.15
2022-07-29T08:16:10.494Z,24.18
2022-07-29T08:18:37.145Z,24.28
2022-07-29T08:21:04.003Z,24.37
2022-07-29T08:23:46.058Z,24.46
2022-07-29T08:26:17.674Z,24.58
2022-07-29T08:28:45.459Z,24.56
2022-07-29T08:31:13.165Z,24.77
2022-07-29T08:33:40.212Z,24.95
2022-07-29T08:36:07.368Z,25.28
2022-07-29T08:38:34.169Z,25.44
2022-07-29T08:41:01.555Z,25.67
2022-07-29T08:43:29.795Z,25.87
2022-07-29T08:45:56.614Z,26.07
2022-07-29T08:48:24.647Z,26.30
2022-07-29T08:50:55.414Z,26.38
2022-07-29T08:53:22.593Z,26.49
2022-07-29T08:55:50.943Z,26.55
2022-07-29T08:58:18.275Z,26.57
2022-07-29T09:00:52.965Z,26.60
2022-07-29T09:03:24.117Z,26.67
2022-07-29T09:05:51.257Z,26.64
2022-07-29T09:08:18.946Z,26.60
2022-07-29T09:10:46.162Z,26.77
2022-07-29T09:13:12.842Z,26.98
2022-07-29T09:15:39.499Z,27.20
2022-07-29T09:18:07.557Z,27.32
2022-07-29T09:20:52.825Z,27.28
2022-07-29T09:23:23.035Z,27.16
2022-07-29T09:25:51.668Z,27.05
2022-07-29T09:28:19.063Z,27.12
2022-07-29T09:30:52.072Z,27.24
2022-07-29T09:33:21.040Z,27.33
2022-07-29T09:35:59.642Z,27.46
2022-07-29T09:38:29.168Z,27.50
2022-07-29T09:40:59.914Z,27.57
2022-07-29T09:43:32.970Z,27.56
2022-07-29T09:46:12.352Z,27.48
2022-07-29T09:48:40.911Z,27.42
2022-07-29T09:51:20.685Z,27.49
2022-07-29T09:53:49.149Z,27.42
2022-07-29T09:56:15.767Z,27.53
2022-07-29T09:58:42.475Z,27.57
2022-07-29T10:01:09.193Z,27.63
2022-07-29T10:03:52.966Z,27.57
2022-07-29T10:06:19.702Z,27.56
2022-07-29T10:08:47.393Z,27.65
2022-07-29T10:11:15.792Z,27.56
2022-07-29T10:13:43.582Z,27.72
2022-07-29T10:16:10.750Z,27.72
2022-07-29T10:18:39.893Z,27.94
2022-07-29T10:21:08.304Z,28.11
2022-07-29T10:23:46.193Z,28.10
2022-07-29T10:26:14.159Z,28.02
2022-07-29T10:28:40.747Z,28.15
2022-07-29T10:31:12.829Z,28.27
2022-07-29T10:33:52.234Z,28.22
2022-07-29T10:36:43.288Z,28.25
2022-07-29T10:39:41.790Z,28.57
2022-07-29T10:42:20.081Z,28.86
2022-07-29T10:44:47.642Z,28.93
2022-07-29T10:47:23.440Z,29.01
2022-07-29T10:49:58.594Z,29.06
2022-07-29T10:52:56.714Z,28.92
2022-07-29T10:55:34.470Z,28.41
2022-07-29T10:58:13.087Z,28.67
2022-07-29T11:00:40.095Z,28.66
2022-07-29T11:03:10.653Z,28.63
2022-07-29T11:05:55.011Z,28.54
2022-07-29T11:08:26.361Z,28.60
2022-07-29T11:11:31.911Z,28.83
2022-07-29T11:13:59.110Z,29.13
2022-07-29T11:16:26.239Z,29.30
2022-07-29T11:19:26.298Z,29.32
2022-07-29T11:21:58.240Z,28.91
2022-07-29T11:24:30.276Z,28.72
2022-07-29T11:27:13.961Z,28.63
2022-07-29T11:29:49.729Z,28.55
2022-07-29T11:32:22.884Z,28.64
2022-07-29T11:35:17.169Z,28.81
2022-07-29T11:37:46.047Z,28.71
2022-07-29T11:40:21.517Z,28.80
2022-07-29T11:42:52.401Z,28.85
2022-07-29T11:48:29.223Z,29.07
2022-07-29T11:50:59.247Z,29.01
2022-07-29T11:53:29.204Z,28.85
2022-07-29T11:56:02.656Z,29.14
2022-07-29T11:58:30.139Z,29.16
2022-07-29T12:00:57.902Z,29.37
2022-07-29T12:03:34.838Z,29.59
2022-07-29T12:06:03.823Z,29.40
2022-07-29T12:08:30.838Z,29.56
2022-07-29T12:10:57.659Z,29.77
2022-07-29T12:13:37.224Z,29.80
2022-07-29T12:16:05.486Z,29.75
2022-07-29T12:18:32.780Z,29.84
2022-07-29T12:21:03.533Z,29.95
2022-07-29T12:23:34.229Z,29.99
2022-07-29T12:26:04.453Z,30.20
2022-07-29T12:28:37.746Z,30.14
2022-07-29T12:31:05.495Z,29.92
2022-07-29T12:33:32.393Z,30.00
2022-07-29T12:36:07.660Z,30.26
2022-07-29T12:38:36.158Z,30.09
2022-07-29T12:41:04.423Z,30.00
2022-07-29T12:43:33.143Z,30.05
2022-07-29T12:46:13.539Z,30.27
2022-07-29T12:48:41.957Z,30.48
2022-07-29T12:51:10.580Z,30.16
2022-07-29T12:53:38.166Z,30.35
2022-07-29T12:56:20.591Z,30.38
2022-07-29T12:58:54.042Z,30.27
2022-07-29T13:01:21.769Z,30.09
2022-07-29T13:03:57.170Z,30.03
2022-07-29T13:06:32.447Z,29.61
2022-07-29T13:09:00.782Z,29.71
2022-07-29T13:11:31.596Z,29.56
2022-07-29T13:14:06.899Z,29.66
2022-07-29T13:16:34.040Z,29.55
2022-07-29T13:19:11.343Z,29.35
2022-07-29T13:21:39.321Z,29.35
2022-07-29T13:24:07.102Z,29.45
2022-07-29T13:26:33.949Z,29.45
2022-07-29T13:29:01.887Z,29.68
2022-07-29T13:31:28.628Z,29.81
2022-07-29T13:33:55.227Z,29.86
2022-07-29T13:36:21.894Z,29.74
2022-07-29T13:38:48.612Z,29.92
2022-07-29T13:41:15.651Z,29.96
2022-07-29T13:43:44.782Z,30.19
2022-07-29T13:46:12.987Z,30.40
2022-07-29T13:48:39.703Z,30.40
2022-07-29T13:51:06.650Z,30.42
2022-07-29T13:53:33.270Z,30.03
2022-07-29T13:56:01.079Z,30.10
2022-07-29T13:58:27.724Z,30.18
2022-07-29T14:00:54.513Z,30.37
2022-07-29T14:03:22.499Z,30.74
2022-07-29T14:05:49.298Z,30.94
2022-07-29T14:08:15.974Z,31.09
2022-07-29T14:10:42.732Z,31.31
2022-07-29T14:13:24.384Z,31.35
2022-07-29T14:15:51.646Z,31.49
2022-07-29T14:18:18.417Z,31.38
2022-07-29T14:20:46.509Z,31.61
2022-07-29T14:23:13.185Z,31.79
2022-07-29T14:25:43.072Z,31.86
2022-07-29T14:28:11.233Z,31.75
2022-07-29T14:30:38.317Z,32.00
2022-07-29T14:33:04.952Z,32.28
2022-07-29T14:35:31.637Z,32.25
2022-07-29T14:37:59.590Z,32.40
2022-07-29T14:40:26.479Z,32.39
2022-07-29T14:42:53.084Z,32.44
2022-07-29T14:45:19.848Z,32.56
2022-07-29T14:47:46.514Z,32.33
2022-07-29T14:50:13.154Z,32.80
2022-07-29T14:52:40.200Z,32.83
2022-07-29T14:55:16.521Z,33.26
2022-07-29T14:57:47.771Z,33.41
2022-07-29T15:00:15.087Z,33.30
2022-07-29T15:03:00.994Z,33.03
2022-07-29T15:05:28.827Z,32.58
2022-07-29T15:07:55.441Z,32.69
2022-07-29T15:10:24.822Z,32.96
2022-07-29T15:12:51.556Z,33.29
2022-07-29T15:15:18.168Z,33.51
2022-07-29T15:17:44.796Z,33.81
2022-07-29T15:20:11.863Z,33.83
2022-07-29T15:22:38.812Z,33.92
2022-07-29T15:25:06.493Z,34.03
2022-07-29T15:27:34.507Z,34.31
2022-07-29T15:30:01.085Z,34.55
2022-07-29T15:32:27.738Z,34.59
2022-07-29T15:34:54.329Z,34.67
2022-07-29T15:37:21.064Z,34.56
2022-07-29T15:39:47.678Z,34.64
2022-07-29T15:42:14.317Z,34.89
2022-07-29T15:44:45.834Z,34.88
2022-07-29T15:47:12.463Z,34.86
2022-07-29T15:49:47.037Z,34.86
2022-07-29T15:52:17.272Z,34.78
2022-07-29T15:54:43.888Z,34.65
2022-07-29T15:57:11.945Z,34.60
2022-07-29T15:59:38.608Z,34.30
2022-07-29T16:02:07.371Z,34.50
2022-07-29T16:04:34.090Z,34.87
2022-07-29T16:07:01.143Z,35.17
2022-07-29T16:09:28.023Z,35.40
2022-07-29T16:11:54.798Z,35.07
2022-07-29T16:14:21.563Z,35.06
2022-07-29T16:16:48.499Z,35.15
2022-07-29T16:19:16.519Z,34.84
2022-07-29T16:21:43.243Z,34.45
2022-07-29T16:24:10.202Z,34.90
2022-07-29T16:26:36.922Z,35.20
2022-07-29T16:29:04.099Z,35.30
2022-07-29T16:31:31.172Z,35.07
2022-07-29T16:33:57.870Z,35.26
2022-07-29T16:36:25.915Z,34.64
2022-07-29T16:38:52.528Z,34.48
2022-07-29T16:41:19.284Z,34.21
2022-07-29T16:43:45.883Z,34.11
2022-07-29T16:46:19.032Z,33.42
2022-07-29T16:48:46.382Z,33.51
2022-07-29T16:51:14.385Z,33.08
2022-07-29T16:53:42.719Z,33.02
2022-07-29T16:56:12.594Z,32.45
2022-07-29T16:58:43.533Z,31.99
2022-07-29T17:01:10.603Z,31.68
2022-07-29T17:03:37.277Z,31.70
2022-07-29T17:06:04.185Z,31.48
2022-07-29T17:08:30.795Z,31.30
2022-07-29T17:10:58.762Z,31.11
2022-07-29T17:13:25.361Z,30.85
2022-07-29T17:15:52.021Z,30.74
2022-07-29T17:18:18.779Z,30.57
2022-07-29T17:20:45.403Z,30.36
2022-07-29T17:23:12.016Z,30.14
2022-07-29T17:25:38.595Z,29.81
2022-07-29T17:28:06.611Z,29.66
2022-07-29T17:30:33.213Z,29.51
2022-07-29T17:32:59.801Z,29.30
2022-07-29T17:35:26.450Z,28.94
2022-07-29T17:37:53.651Z,28.72
2022-07-29T17:40:20.471Z,28.41
2022-07-29T17:42:47.097Z,28.30
2022-07-29T17:45:15.060Z,28.13
2022-07-29T17:47:41.742Z,27.95
2022-07-29T17:50:08.907Z,27.89
2022-07-29T17:52:35.528Z,28.22
2022-07-29T17:55:02.115Z,28.66
2022-07-29T17:57:28.767Z,29.01
2022-07-29T17:59:55.415Z,29.48
2022-07-29T18:02:23.552Z,29.61
2022-07-29T18:04:53.259Z,29.82
2022-07-29T18:07:19.854Z,29.58
2022-07-29T18:09:46.532Z,29.42
2022-07-29T18:12:13.326Z,29.12
2022-07-29T18:14:40.215Z,28.90
2022-07-29T18:17:07.112Z,28.73
2022-07-29T18:19:35.269Z,28.52
2022-07-29T18:22:05.333Z,28.19
2022-07-29T18:24:32.728Z,28.04
2022-07-29T18:27:00.095Z,27.57
2022-07-29T18:29:26.982Z,27.48
2022-07-29T18:31:53.698Z,27.32
2022-07-29T18:34:20.391Z,27.11
2022-07-29T18:36:48.360Z,27.01
2022-07-29T18:39:20.919Z,26.96
2022-07-29T18:41:50.279Z,26.83
2022-07-29T18:44:18.048Z,26.69
2022-07-29T18:46:47.170Z,26.58
2022-07-29T18:49:14.164Z,26.41
2022-07-29T18:51:40.879Z,26.19
2022-07-29T18:54:08.864Z,25.95
2022-07-29T18:56:35.565Z,25.81
2022-07-29T18:59:02.525Z,25.88
2022-07-29T19:01:31.845Z,25.72
2022-07-29T19:03:59.873Z,25.54
2022-07-29T19:06:26.598Z,25.37
2022-07-29T19:08:53.320Z,25.22
2022-07-29T19:11:21.543Z,24.84
2022-07-29T19:13:48.671Z,24.83
2022-07-29T19:16:15.365Z,24.73
2022-07-29T19:18:42.118Z,24.58
2022-07-29T19:21:08.984Z,24.47
2022-07-29T19:24:04.175Z,24.34
2022-07-29T19:26:23.894Z,24.19
2022-07-29T19:28:53.206Z,24.02
2022-07-29T19:31:19.857Z,23.89
2022-07-29T19:33:46.630Z,23.76
2022-07-29T19:36:13.275Z,23.65
2022-07-29T19:38:39.923Z,23.46
2022-07-29T19:41:06.639Z,23.40
2022-07-29T19:43:52.136Z,23.25
2022-07-29T19:46:19.658Z,23.09
2022-07-29T19:48:46.356Z,23.02
2022-07-29T19:51:13.163Z,22.93
2022-07-29T19:53:39.896Z,22.80
2022-07-29T19:56:06.645Z,22.65
2022-07-29T19:58:37.058Z,22.37
2022-07-29T20:01:10.426Z,22.46
2022-07-29T20:03:37.707Z,22.36
2022-07-29T20:06:04.504Z,22.27
2022-07-29T20:08:31.143Z,22.15
2022-07-29T20:10:57.777Z,22.08
2022-07-29T20:13:24.713Z,21.94
2022-07-29T20:15:52.722Z,21.72
2022-07-29T20:18:19.398Z,21.67
2022-07-29T20:20:46.108Z,21.53
2022-07-29T20:23:12.763Z,21.33
2022-07-29T20:25:39.344Z,21.16
2022-07-29T20:28:06.007Z,21.06
2022-07-29T20:30:32.700Z,20.94
2022-07-29T20:33:00.934Z,20.84
2022-07-29T20:35:27.787Z,20.74
2022-07-29T20:37:56.382Z,20.66
2022-07-29T20:40:23.864Z,20.55
2022-07-29T20:42:50.522Z,20.45
2022-07-29T20:45:17.223Z,20.33
2022-07-29T20:47:43.851Z,20.21
2022-07-29T20:50:11.927Z,20.13
2022-07-29T20:52:38.642Z,20.09
2022-07-29T20:55:06.457Z,20.02
2022-07-29T20:57:39.215Z,19.93
2022-07-29T21:00:07.821Z,19.85
2022-07-29T21:02:34.625Z,19.76
2022-07-29T21:05:01.351Z,19.72
2022-07-29T21:07:29.356Z,19.68
2022-07-29T21:09:55.998Z,19.56
2022-07-29T21:12:22.573Z,19.49
2022-07-29T21:14:49.245Z,19.43
2022-07-29T21:17:16.665Z,19.38
2022-07-29T21:19:43.350Z,19.33
2022-07-29T21:22:10.071Z,19.15
2022-07-29T21:24:38.209Z,19.10
2022-07-29T21:27:19.632Z,19.07
2022-07-29T21:29:47.691Z,18.97
2022-07-29T21:32:14.350Z,18.93
2022-07-29T21:34:56.151Z,18.87
2022-07-29T21:37:22.717Z,18.84
2022-07-29T21:39:50.971Z,18.80
2022-07-29T21:42:17.570Z,18.77
2022-07-29T21:44:44.360Z,18.74
2022-07-29T21:47:10.923Z,18.71
2022-07-29T21:49:37.691Z,18.66
2022-07-29T21:52:05.465Z,18.49
2022-07-29T21:54:33.885Z,18.55
2022-07-29T21:57:01.956Z,18.53
2022-07-29T21:59:29.301Z,18.45
2022-07-29T22:01:56.101Z,18.48
2022-07-29T22:04:22.930Z,18.45
2022-07-29T22:06:49.577Z,18.37
2022-07-29T22:09:16.229Z,18.39
2022-07-29T22:11:42.860Z,18.34
2022-07-29T22:14:10.876Z,18.32
2022-07-29T22:16:37.672Z,18.27
2022-07-29T22:19:04.350Z,18.31
2022-07-29T22:21:30.968Z,18.27
2022-07-29T22:23:57.925Z,18.24
2022-07-29T22:26:24.751Z,18.13
2022-07-29T22:28:51.472Z,18.08
2022-07-29T22:31:19.529Z,18.04
2022-07-29T22:33:49.090Z,18.03
2022-07-29T22:36:15.658Z,17.99
2022-07-29T22:38:42.220Z,17.98
2022-07-29T22:41:09.315Z,17.97
2022-07-29T22:43:38.136Z,18.00
2022-07-29T22:46:04.808Z,17.99
2022-07-29T22:48:32.789Z,17.99
2022-07-29T22:50:59.341Z,17.98
2022-07-29T22:53:25.902Z,17.97
2022-07-29T22:55:53.098Z,17.96
2022-07-29T22:58:19.719Z,17.96
2022-07-29T23:00:46.376Z,17.77
2022-07-29T23:03:12.979Z,17.85
2022-07-29T23:05:40.974Z,17.75
2022-07-29T23:08:07.568Z,17.88
2022-07-29T23:10:34.267Z,17.76
2022-07-29T23:13:00.947Z,17.85
2022-07-29T23:15:27.525Z,17.74
2022-07-29T23:17:54.157Z,17.74
2022-07-29T23:20:20.737Z,17.84
2022-07-29T23:22:48.674Z,17.83
2022-07-29T23:25:15.272Z,17.75
2022-07-29T23:27:41.858Z,17.79
2022-07-29T23:30:09.479Z,17.69
2022-07-29T23:32:36.230Z,17.68
2022-07-29T23:35:03.336Z,17.61
2022-07-29T23:37:29.902Z,17.55
2022-07-29T23:39:57.842Z,17.37
2022-07-29T23:42:24.562Z,17.37
2022-07-29T23:44:51.285Z,17.40
2022-07-29T23:47:18.034Z,17.35
2022-07-29T23:49:44.721Z,17.30
2022-07-29T23:52:11.363Z,17.27
2022-07-29T23:54:38.037Z,17.23
2022-07-29T23:57:06.053Z,17.17
2022-07-29T23:59:32.714Z,17.12
